Time;durP1;ratioP1;P1;durP2;ratioP2;P2;SDS_P1;SDS_P2;PMS_P1;PMS_P2;Temp;Humidity;BMP_temperature;BMP_pressure;BME280_temperature;BME280_humidity;BME280_pressure;Samples;Min_cycle;Max_cycle;Signal;HPM_P1;HPM_P2
2024/01/04 00:01:12;;;;;;;0.00;0.00;;;6.90;88.00;;;;;;5079506;28;20127;-69
2024/01/04 00:03:38;;;;;;;0.00;0.00;;;6.70;87.60;;;;;;5059038;28;20082;-69
2024/01/04 00:06:04;;;;;;;0.00;0.00;;;6.70;87.70;;;;;;5064226;28;20517;-69
2024/01/04 00:08:29;;;;;;;0.10;0.10;;;6.60;87.60;;;;;;5068199;28;20041;-69
2024/01/04 00:10:55;;;;;;;0.00;0.00;;;6.60;87.70;;;;;;5067668;28;20070;-69
2024/01/04 00:13:21;;;;;;;0.00;0.00;;;6.70;87.50;;;;;;5063488;28;20040;-69
2024/01/04 00:15:47;;;;;;;0.00;0.00;;;6.60;87.70;;;;;;5060674;28;20074;-69
2024/01/04 00:18:12;;;;;;;0.00;0.00;;;6.60;87.30;;;;;;5065706;28;20119;-69
2024/01/04 00:20:38;;;;;;;0.00;0.00;;;6.60;87.60;;;;;;5065539;28;20036;-69
2024/01/04 00:23:04;;;;;;;0.00;0.00;;;6.60;87.50;;;;;;5061102;28;20044;-69
2024/01/04 00:25:29;;;;;;;0.00;0.00;;;6.60;87.40;;;;;;5065302;28;20492;-69
2024/01/04 00:27:55;;;;;;;0.00;0.00;;;6.70;86.90;;;;;;5033521;28;20044;-69
2024/01/04 00:30:21;;;;;;;0.00;0.00;;;6.60;86.70;;;;;;5067545;28;20056;-69
2024/01/04 00:32:46;;;;;;;0.00;0.00;;;6.60;86.50;;;;;;5059813;28;20045;-69
2024/01/04 00:35:12;;;;;;;0.00;0.00;;;6.50;86.50;;;;;;5063633;28;20080;-69
2024/01/04 00:37:37;;;;;;;0.10;0.10;;;6.60;86.40;;;;;;5083369;28;20044;-69
2024/01/04 00:40:04;;;;;;;0.05;0.05;;;6.50;86.30;;;;;;5055929;28;20080;-69
2024/01/04 00:42:30;;;;;;;0.00;0.00;;;6.50;85.90;;;;;;5036608;28;20043;-69
2024/01/04 00:44:55;;;;;;;0.00;0.00;;;6.50;85.70;;;;;;5067680;28;20398;-69
2024/01/04 00:47:21;;;;;;;0.00;0.00;;;6.50;85.90;;;;;;5068498;28;20040;-69
2024/01/04 00:49:46;;;;;;;0.00;0.00;;;6.60;85.90;;;;;;5069581;28;20041;-69
2024/01/04 00:52:12;;;;;;;0.08;0.08;;;6.50;85.90;;;;;;5068911;28;20040;-69
2024/01/04 00:54:38;;;;;;;0.00;0.00;;;6.50;85.70;;;;;;5068679;28;20140;-69
2024/01/04 00:57:04;;;;;;;0.10;0.10;;;6.50;85.00;;;;;;5069016;28;20900;-69
2024/01/04 00:59:29;;;;;;;0.00;0.00;;;6.60;84.90;;;;;;5069036;28;20040;-69
2024/01/04 01:01:55;;;;;;;0.00;0.00;;;6.50;84.80;;;;;;5068978;28;20123;-69
2024/01/04 01:04:20;;;;;;;0.05;0.05;;;6.60;84.70;;;;;;5067894;28;20091;-69
2024/01/04 01:06:46;;;;;;;0.00;0.00;;;6.60;85.00;;;;;;5069145;28;20075;-69
2024/01/04 01:09:12;;;;;;;0.10;0.10;;;6.60;84.50;;;;;;5063311;28;20075;-69
2024/01/04 01:11:37;;;;;;;0.25;0.25;;;6.40;85.10;;;;;;5058921;28;20037;-69
2024/01/04 01:14:03;;;;;;;0.00;0.00;;;6.40;85.40;;;;;;5045936;28;20040;-69
2024/01/04 01:16:28;;;;;;;0.00;0.00;;;6.40;85.50;;;;;;5054919;28;20518;-69
2024/01/04 01:18:54;;;;;;;0.00;0.00;;;6.40;85.60;;;;;;5067500;28;20036;-69
2024/01/04 01:21:20;;;;;;;0.10;0.10;;;6.40;85.80;;;;;;5064786;28;20036;-69
2024/01/04 01:23:45;;;;;;;0.00;0.00;;;6.40;85.80;;;;;;5049957;28;20059;-69
2024/01/04 01:26:11;;;;;;;0.13;0.13;;;6.30;85.90;;;;;;5061638;28;20036;-69
2024/01/04 01:28:36;;;;;;;0.00;0.00;;;6.40;85.80;;;;;;5048471;28;20129;-69
2024/01/04 01:31:02;;;;;;;0.00;0.00;;;6.40;85.50;;;;;;5057379;28;20037;-69
2024/01/04 01:33:28;;;;;;;0.00;0.00;;;6.30;85.70;;;;;;5062313;28;20045;-69
2024/01/04 01:35:56;;;;;;;0.00;0.00;;;6.30;85.50;;;;;;5059579;28;20045;-69
2024/01/04 01:38:23;;;;;;;0.00;0.00;;;6.30;85.50;;;;;;5051839;28;20044;-69
2024/01/04 01:40:48;;;;;;;0.00;0.00;;;6.30;85.30;;;;;;5047031;28;20159;-69
2024/01/04 01:43:14;;;;;;;0.10;0.10;;;6.30;84.90;;;;;;5047234;28;20123;-69
2024/01/04 01:45:40;;;;;;;0.00;0.00;;;6.30;85.00;;;;;;5059297;28;20125;-69
2024/01/04 01:48:06;;;;;;;0.00;0.00;;;6.30;85.10;;;;;;5056218;28;20083;-69
2024/01/04 01:50:33;;;;;;;0.00;0.00;;;6.20;85.20;;;;;;5049888;28;20051;-69
2024/01/04 01:52:59;;;;;;;0.00;0.00;;;6.40;84.70;;;;;;5065967;28;20110;-69
2024/01/04 01:55:25;;;;;;;0.00;0.00;;;6.30;84.80;;;;;;5065464;28;20481;-69
2024/01/04 01:57:51;;;;;;;0.00;0.00;;;6.30;84.90;;;;;;5049435;28;20053;-69
2024/01/04 02:00:19;;;;;;;0.00;0.00;;;6.30;85.00;;;;;;5046956;28;20044;-69
2024/01/04 02:02:48;;;;;;;0.10;0.10;;;6.20;85.10;;;;;;5050055;28;20045;-69
2024/01/04 02:05:14;;;;;;;0.10;0.10;;;6.20;84.90;;;;;;5057606;28;20048;-69
2024/01/04 02:07:40;;;;;;;0.00;0.00;;;6.20;84.50;;;;;;5061892;28;20037;-69
2024/01/04 02:10:06;;;;;;;0.00;0.00;;;6.20;84.70;;;;;;5062881;28;20406;-69
2024/01/04 02:12:32;;;;;;;0.10;0.10;;;6.20;84.60;;;;;;5051019;28;20037;-69
2024/01/04 02:14:58;;;;;;;0.00;0.00;;;6.10;84.60;;;;;;5056336;28;20044;-69
2024/01/04 02:17:28;;;;;;;0.08;0.08;;;6.40;84.60;;;;;;5061848;28;20040;-69
2024/01/04 02:19:56;;;;;;;0.00;0.00;;;6.30;83.60;;;;;;5062381;28;20052;-69
2024/01/04 02:22:22;;;;;;;0.00;0.00;;;6.20;83.90;;;;;;5065478;28;20059;-69
2024/01/04 02:24:47;;;;;;;0.10;0.10;;;6.20;84.20;;;;;;5047983;28;20045;-69
2024/01/04 02:27:13;;;;;;;0.00;0.00;;;6.10;84.40;;;;;;5057471;28;20412;-69
2024/01/04 02:29:39;;;;;;;0.00;0.00;;;6.20;84.50;;;;;;5062185;28;20072;-69
2024/01/04 02:32:05;;;;;;;0.00;0.00;;;6.20;84.40;;;;;;5065343;28;20053;-69
2024/01/04 02:34:32;;;;;;;0.00;0.00;;;6.20;83.60;;;;;;5039638;28;20052;-69
2024/01/04 02:36:58;;;;;;;0.10;0.10;;;6.10;83.70;;;;;;5035389;28;20041;-69
2024/01/04 02:39:23;;;;;;;0.00;0.00;;;6.10;83.50;;;;;;5055202;28;20134;-69
2024/01/04 02:41:49;;;;;;;0.10;0.10;;;6.20;83.70;;;;;;5055333;28;20079;-69
2024/01/04 02:44:15;;;;;;;0.00;0.00;;;6.20;83.30;;;;;;5065654;28;20051;-69
2024/01/04 02:46:41;;;;;;;0.00;0.00;;;6.10;83.00;;;;;;5051088;28;20052;-69
2024/01/04 02:49:06;;;;;;;0.00;0.00;;;6.10;82.70;;;;;;5050996;28;20900;-69
2024/01/04 02:51:32;;;;;;;0.00;0.00;;;6.20;82.80;;;;;;5058804;28;20449;-69
2024/01/04 02:53:58;;;;;;;0.00;0.00;;;6.10;83.00;;;;;;5061111;28;20043;-69
2024/01/04 02:56:24;;;;;;;0.00;0.00;;;6.10;82.90;;;;;;5052679;28;20131;-69
2024/01/04 02:58:49;;;;;;;0.00;0.00;;;6.10;82.70;;;;;;5059749;28;20152;-69
2024/01/04 03:01:19;;;;;;;0.00;0.00;;;6.10;82.70;;;;;;5065589;28;20037;-69
2024/01/04 03:03:45;;;;;;;0.00;0.00;;;6.20;82.50;;;;;;5050977;28;20075;-69
2024/01/04 03:06:11;;;;;;;0.00;0.00;;;6.20;82.30;;;;;;5047219;28;20048;-69
2024/01/04 03:08:36;;;;;;;0.00;0.00;;;6.10;82.60;;;;;;5062050;28;20063;-69
2024/01/04 03:11:02;;;;;;;0.00;0.00;;;6.20;82.60;;;;;;5067059;28;20044;-69
2024/01/04 03:13:28;;;;;;;0.00;0.00;;;6.10;82.40;;;;;;5066909;28;20059;-69
2024/01/04 03:15:53;;;;;;;0.10;0.10;;;6.10;82.70;;;;;;5066523;28;20043;-69
2024/01/04 03:18:19;;;;;;;0.00;0.00;;;6.10;82.30;;;;;;5065763;28;20045;-69
2024/01/04 03:20:44;;;;;;;0.00;0.00;;;6.10;82.50;;;;;;5067228;28;20075;-69
2024/01/04 03:23:10;;;;;;;0.10;0.10;;;6.10;82.80;;;;;;5066188;28;20041;-69
2024/01/04 03:25:36;;;;;;;3.13;1.85;;;6.10;82.90;;;;;;5066815;28;20037;-69
2024/01/04 03:28:01;;;;;;;0.00;0.00;;;6.00;82.90;;;;;;5066744;28;20098;-68
2024/01/04 03:30:27;;;;;;;0.00;0.00;;;6.00;83.10;;;;;;5066633;28;20140;-69
2024/01/04 03:32:52;;;;;;;0.00;0.00;;;5.90;83.30;;;;;;5066639;28;20033;-69
2024/01/04 03:35:18;;;;;;;0.00;0.00;;;5.90;83.40;;;;;;5066304;28;20094;-68
2024/01/04 03:37:43;;;;;;;0.00;0.00;;;5.90;83.40;;;;;;5066359;28;20054;-68
2024/01/04 03:40:09;;;;;;;0.00;0.00;;;6.00;83.30;;;;;;5065866;28;20040;-69
2024/01/04 03:42:36;;;;;;;0.00;0.00;;;5.90;83.30;;;;;;5066355;28;20041;-69
2024/01/04 03:45:02;;;;;;;0.00;0.00;;;5.80;83.40;;;;;;5066689;28;20051;-69
2024/01/04 03:47:29;;;;;;;0.00;0.00;;;5.70;83.30;;;;;;5066366;28;20041;-69
2024/01/04 03:49:54;;;;;;;0.00;0.00;;;5.70;83.50;;;;;;5066244;28;20383;-69
2024/01/04 03:52:20;;;;;;;0.08;0.08;;;5.60;83.70;;;;;;5066078;28;20103;-69
2024/01/04 03:54:46;;;;;;;0.00;0.00;;;5.60;83.70;;;;;;5066259;28;20044;-69
2024/01/04 03:57:11;;;;;;;0.00;0.00;;;5.60;83.90;;;;;;5066221;28;20139;-69
2024/01/04 03:59:37;;;;;;;0.00;0.00;;;5.60;84.10;;;;;;5066047;28;20051;-69
2024/01/04 04:02:03;;;;;;;0.10;0.10;;;5.60;84.20;;;;;;5066806;28;20037;-69
2024/01/04 04:04:29;;;;;;;0.00;0.00;;;5.60;84.50;;;;;;5065460;28;20090;-69
2024/01/04 04:06:54;;;;;;;0.00;0.00;;;5.60;84.70;;;;;;5065629;28;20048;-69
2024/01/04 04:09:20;;;;;;;0.00;0.00;;;5.60;84.80;;;;;;5065713;28;20488;-69
2024/01/04 04:11:47;;;;;;;0.38;0.15;;;5.60;85.00;;;;;;5064596;28;20036;-69
2024/01/04 04:14:13;;;;;;;1.08;0.22;;;5.60;85.20;;;;;;5065416;28;20056;-69
2024/01/04 04:16:40;;;;;;;0.08;0.08;;;5.60;85.40;;;;;;5058528;28;20045;-69
2024/01/04 04:19:06;;;;;;;0.00;0.00;;;5.60;85.30;;;;;;5056754;28;20039;-69
2024/01/04 04:21:31;;;;;;;0.00;0.00;;;5.60;85.20;;;;;;5064790;28;20041;-68
2024/01/04 04:23:57;;;;;;;0.10;0.10;;;5.60;85.30;;;;;;5064149;28;20040;-69
2024/01/04 04:26:23;;;;;;;0.00;0.00;;;5.60;85.10;;;;;;5064894;28;20052;-69
2024/01/04 04:28:49;;;;;;;0.05;0.05;;;5.70;85.10;;;;;;5055727;28;20546;-69
2024/01/04 04:31:15;;;;;;;0.10;0.10;;;5.60;84.70;;;;;;5064476;28;20040;-69
2024/01/04 04:33:42;;;;;;;0.00;0.00;;;5.60;84.70;;;;;;5069409;28;20102;-68
2024/01/04 04:36:08;;;;;;;0.00;0.00;;;5.60;84.70;;;;;;5069496;28;20048;-69
2024/01/04 04:38:34;;;;;;;0.00;0.00;;;5.60;84.20;;;;;;5069581;28;20063;-69
2024/01/04 04:41:00;;;;;;;0.00;0.00;;;5.60;84.40;;;;;;5069041;28;20403;-69
2024/01/04 04:43:26;;;;;;;0.00;0.00;;;5.50;84.00;;;;;;5069531;28;20093;-69
2024/01/04 04:45:52;;;;;;;0.03;0.03;;;5.60;84.20;;;;;;5049269;28;20848;-69
2024/01/04 04:48:17;;;;;;;0.00;0.00;;;5.50;84.20;;;;;;5066458;28;20043;-69
2024/01/04 04:50:43;;;;;;;1.17;1.17;;;5.50;84.40;;;;;;5069028;28;20040;-69
2024/01/04 04:53:08;;;;;;;0.00;0.00;;;5.40;84.50;;;;;;5069118;28;20402;-69
2024/01/04 04:55:34;;;;;;;0.00;0.00;;;5.40;84.90;;;;;;5069198;28;20080;-69
2024/01/04 04:57:59;;;;;;;0.10;0.10;;;5.40;85.10;;;;;;5069226;28;20532;-68
2024/01/04 05:00:25;;;;;;;0.10;0.10;;;5.30;85.20;;;;;;5068466;28;20040;-69
2024/01/04 05:02:51;;;;;;;0.10;0.10;;;5.40;85.40;;;;;;5069065;28;20041;-69
2024/01/04 05:05:17;;;;;;;0.00;0.00;;;5.30;85.60;;;;;;5068998;28;20045;-69
2024/01/04 05:07:42;;;;;;;0.00;0.00;;;5.30;85.70;;;;;;5068922;28;20202;-68
2024/01/04 05:10:08;;;;;;;0.00;0.00;;;5.30;85.70;;;;;;5068353;28;20526;-69
2024/01/04 05:12:34;;;;;;;0.00;0.00;;;5.30;85.90;;;;;;5068806;28;20050;-69
2024/01/04 05:14:59;;;;;;;0.10;0.10;;;5.30;85.90;;;;;;5068884;28;20040;-69
2024/01/04 05:17:25;;;;;;;0.00;0.00;;;5.30;86.00;;;;;;5068898;28;20131;-69
2024/01/04 05:19:51;;;;;;;0.00;0.00;;;5.30;86.00;;;;;;5068131;28;20040;-69
2024/01/04 05:22:16;;;;;;;0.00;0.00;;;5.30;86.10;;;;;;5069020;28;20041;-69
2024/01/04 05:24:42;;;;;;;0.00;0.00;;;5.30;86.20;;;;;;5068476;28;20045;-69
2024/01/04 05:27:08;;;;;;;0.00;0.00;;;5.20;86.20;;;;;;5068117;28;20517;-69
2024/01/04 05:29:33;;;;;;;0.00;0.00;;;5.20;86.30;;;;;;5067466;28;20045;-69
2024/01/04 05:31:59;;;;;;;0.00;0.00;;;5.20;86.40;;;;;;5067186;28;20032;-69
2024/01/04 05:34:25;;;;;;;0.00;0.00;;;5.20;86.50;;;;;;5067721;28;20870;-69
2024/01/04 05:36:51;;;;;;;0.08;0.08;;;5.20;86.30;;;;;;5049738;28;20091;-69
2024/01/04 05:39:17;;;;;;;0.00;0.00;;;5.20;86.30;;;;;;5063170;28;20495;-69
2024/01/04 05:41:42;;;;;;;0.10;0.10;;;5.20;86.40;;;;;;5068053;28;20110;-69
2024/01/04 05:44:08;;;;;;;0.00;0.00;;;5.20;86.30;;;;;;5067571;28;20099;-69
2024/01/04 05:46:34;;;;;;;0.00;0.00;;;5.30;86.40;;;;;;5067923;28;20090;-68
2024/01/04 05:49:00;;;;;;;0.00;0.00;;;5.30;86.30;;;;;;5068166;28;20036;-69
2024/01/04 05:51:26;;;;;;;0.10;0.10;;;5.20;86.20;;;;;;5066188;28;20052;-69
2024/01/04 05:53:51;;;;;;;0.10;0.10;;;5.30;86.30;;;;;;5058578;28;20839;-69
2024/01/04 05:56:17;;;;;;;0.00;0.00;;;5.30;86.20;;;;;;5067153;28;20043;-69
2024/01/04 05:58:43;;;;;;;0.00;0.00;;;5.30;86.30;;;;;;5067115;28;20414;-69
2024/01/04 06:01:09;;;;;;;0.00;0.00;;;5.30;86.20;;;;;;5064830;28;20040;-69
2024/01/04 06:03:34;;;;;;;0.00;0.00;;;5.40;86.10;;;;;;5067387;28;20517;-69
2024/01/04 06:06:00;;;;;;;0.00;0.00;;;5.40;86.20;;;;;;5063148;28;20049;-69
2024/01/04 06:08:26;;;;;;;0.10;0.10;;;5.40;86.20;;;;;;5067600;28;20044;-69
2024/01/04 06:10:52;;;;;;;0.10;0.10;;;5.40;86.20;;;;;;5067302;28;20036;-69
2024/01/04 06:13:18;;;;;;;0.00;0.00;;;5.40;86.10;;;;;;5066864;28;20036;-69
2024/01/04 06:15:45;;;;;;;0.10;0.10;;;5.40;86.10;;;;;;5066873;28;20097;-68
2024/01/04 06:18:11;;;;;;;0.00;0.00;;;5.40;86.00;;;;;;5050573;28;20123;-69
2024/01/04 06:20:38;;;;;;;0.00;0.00;;;5.50;86.00;;;;;;5066862;28;20824;-69
2024/01/04 06:23:04;;;;;;;0.10;0.10;;;5.40;86.00;;;;;;5067538;28;20048;-69
2024/01/04 06:25:30;;;;;;;0.00;0.00;;;5.30;85.90;;;;;;5066952;28;20039;-69
2024/01/04 06:27:56;;;;;;;0.00;0.00;;;5.50;86.00;;;;;;5066553;28;20048;-69
2024/01/04 06:30:22;;;;;;;0.00;0.00;;;5.40;86.10;;;;;;5047341;28;20559;-69
2024/01/04 06:32:48;;;;;;;0.10;0.10;;;5.50;86.10;;;;;;5064193;28;20124;-69
2024/01/04 06:35:13;;;;;;;0.00;0.00;;;5.40;86.00;;;;;;5066952;28;20051;-68
2024/01/04 06:37:39;;;;;;;0.00;0.00;;;5.50;85.90;;;;;;5066249;28;20040;-69
2024/01/04 06:40:05;;;;;;;0.00;0.00;;;5.50;86.00;;;;;;5067114;28;20056;-69
2024/01/04 06:42:31;;;;;;;0.00;0.00;;;5.50;86.00;;;;;;5066489;28;20099;-69
2024/01/04 06:44:57;;;;;;;0.00;0.00;;;5.60;86.00;;;;;;5066602;28;20510;-69
2024/01/04 06:47:22;;;;;;;0.10;0.10;;;5.60;86.10;;;;;;5066458;28;20047;-69
2024/01/04 06:49:48;;;;;;;0.00;0.00;;;5.60;86.10;;;;;;5066148;28;20550;-69
2024/01/04 06:52:14;;;;;;;0.00;0.00;;;5.60;86.10;;;;;;5067793;28;20045;-69
2024/01/04 06:54:39;;;;;;;0.00;0.00;;;5.60;86.00;;;;;;5067016;28;20036;-69
2024/01/04 06:57:06;;;;;;;0.00;0.00;;;5.60;86.10;;;;;;5066992;28;20044;-69
2024/01/04 06:59:33;;;;;;;0.00;0.00;;;5.70;86.10;;;;;;5066591;28;20449;-69
2024/01/04 07:01:58;;;;;;;0.00;0.00;;;5.70;86.20;;;;;;5066747;28;20048;-69
2024/01/04 07:04:24;;;;;;;0.00;0.00;;;5.70;86.10;;;;;;5067027;28;20047;-69
2024/01/04 07:06:49;;;;;;;0.00;0.00;;;5.70;86.00;;;;;;5067275;28;20565;-69
2024/01/04 07:09:16;;;;;;;0.08;0.08;;;5.70;86.00;;;;;;5066753;28;20056;-69
2024/01/04 07:11:42;;;;;;;0.00;0.00;;;5.70;86.10;;;;;;5066917;28;20048;-69
2024/01/04 07:14:08;;;;;;;0.00;0.00;;;5.70;86.00;;;;;;5066449;28;20036;-69
2024/01/04 07:16:34;;;;;;;0.17;0.17;;;5.70;85.40;;;;;;5066207;28;20525;-69
2024/01/04 07:18:59;;;;;;;0.00;0.00;;;5.70;85.70;;;;;;5066364;28;20037;-69
2024/01/04 07:21:25;;;;;;;0.08;0.08;;;5.70;85.80;;;;;;5066877;28;20422;-69
2024/01/04 07:23:51;;;;;;;0.00;0.00;;;5.80;85.90;;;;;;5066674;28;20079;-69
2024/01/04 07:26:17;;;;;;;0.00;0.00;;;5.70;86.00;;;;;;5066653;28;20115;-69
2024/01/04 07:28:43;;;;;;;0.38;0.38;;;5.70;86.00;;;;;;5065843;28;20574;-69
2024/01/04 07:31:08;;;;;;;0.00;0.00;;;5.70;85.80;;;;;;5066852;28;20131;-69
2024/01/04 07:33:34;;;;;;;0.00;0.00;;;5.70;85.90;;;;;;5066981;28;20079;-69
2024/01/04 07:36:00;;;;;;;0.47;0.47;;;5.70;85.70;;;;;;5065974;28;20050;-69
2024/01/04 07:38:25;;;;;;;0.00;0.00;;;5.70;85.70;;;;;;5065913;28;20048;-69
2024/01/04 07:40:51;;;;;;;0.00;0.00;;;5.70;85.70;;;;;;5066335;28;20594;-69
2024/01/04 07:43:16;;;;;;;0.00;0.00;;;5.70;85.80;;;;;;5065570;28;20052;-69
2024/01/04 07:45:42;;;;;;;0.00;0.00;;;5.70;85.60;;;;;;5066463;28;20048;-69
2024/01/04 07:48:11;;;;;;;0.00;0.00;;;5.70;85.70;;;;;;5064713;28;20067;-69
2024/01/04 07:50:37;;;;;;;0.00;0.00;;;5.70;85.60;;;;;;5066259;28;20495;-69
2024/01/04 07:53:02;;;;;;;0.00;0.00;;;5.70;85.60;;;;;;5065743;28;20060;-69
2024/01/04 07:55:28;;;;;;;0.00;0.00;;;5.70;85.60;;;;;;5065769;28;20051;-69
2024/01/04 07:57:53;;;;;;;0.00;0.00;;;5.70;85.40;;;;;;5066215;28;20041;-69
2024/01/04 08:00:19;;;;;;;0.10;0.10;;;5.70;85.40;;;;;;5066423;28;20075;-69
2024/01/04 08:02:45;;;;;;;0.00;0.00;;;5.70;85.20;;;;;;5067559;28;20044;-69
2024/01/04 08:05:13;;;;;;;0.00;0.00;;;5.70;85.20;;;;;;5070243;28;20120;-69
2024/01/04 08:07:38;;;;;;;0.00;0.00;;;5.70;85.30;;;;;;5069278;28;20067;-70
2024/01/04 08:10:05;;;;;;;0.00;0.00;;;5.70;85.40;;;;;;5069898;28;20583;-69
2024/01/04 08:12:30;;;;;;;0.00;0.00;;;5.70;85.50;;;;;;5034948;28;20383;-69
2024/01/04 08:14:56;;;;;;;0.00;0.00;;;5.80;85.50;;;;;;5069558;28;20044;-69
2024/01/04 08:17:22;;;;;;;0.00;0.00;;;5.80;85.60;;;;;;5069441;28;20131;-69
2024/01/04 08:19:48;;;;;;;0.00;0.00;;;5.80;85.80;;;;;;5069612;28;20121;-69
2024/01/04 08:22:13;;;;;;;0.00;0.00;;;5.70;85.60;;;;;;5069985;28;20525;-69
2024/01/04 08:24:41;;;;;;;0.00;0.00;;;5.80;85.80;;;;;;5069949;28;20049;-69
2024/01/04 08:27:06;;;;;;;0.00;0.00;;;5.80;85.50;;;;;;5051971;28;20127;-69
2024/01/04 08:29:32;;;;;;;0.00;0.00;;;5.80;85.70;;;;;;5069001;28;20040;-69
2024/01/04 08:31:58;;;;;;;0.17;0.17;;;5.80;85.70;;;;;;5068204;28;20049;-69
2024/01/04 08:34:24;;;;;;;0.00;0.00;;;5.80;85.60;;;;;;5067157;28;20686;-69
2024/01/04 08:36:49;;;;;;;0.00;0.00;;;5.80;85.60;;;;;;5069222;28;20048;-69
2024/01/04 08:39:15;;;;;;;0.10;0.10;;;5.80;85.60;;;;;;5068699;28;20409;-69
2024/01/04 08:41:41;;;;;;;0.00;0.00;;;5.80;85.70;;;;;;5068788;28;20041;-68
2024/01/04 08:44:07;;;;;;;0.03;0.03;;;5.90;85.60;;;;;;5069537;28;20049;-68
2024/01/04 08:46:37;;;;;;;0.05;0.05;;;5.90;85.50;;;;;;5069496;28;20048;-69
2024/01/04 08:49:04;;;;;;;0.00;0.00;;;5.90;85.50;;;;;;5068981;28;20089;-69
2024/01/04 08:51:29;;;;;;;0.10;0.10;;;5.90;85.60;;;;;;5068152;28;20033;-68
2024/01/04 08:53:55;;;;;;;0.00;0.00;;;5.90;85.50;;;;;;5069158;28;20047;-69
2024/01/04 08:56:21;;;;;;;0.00;0.00;;;6.00;85.40;;;;;;5069261;28;20487;-69
2024/01/04 08:58:47;;;;;;;0.00;0.00;;;6.00;85.50;;;;;;5069193;28;20066;-69
2024/01/04 09:01:12;;;;;;;0.00;0.00;;;6.00;85.60;;;;;;5050833;28;20111;-69
2024/01/04 09:03:38;;;;;;;0.00;0.00;;;6.00;85.60;;;;;;5068098;28;20398;-68
2024/01/04 09:06:06;;;;;;;0.00;0.00;;;6.10;85.60;;;;;;5067974;28;20094;-69
2024/01/04 09:08:35;;;;;;;0.00;0.00;;;6.10;85.70;;;;;;5068221;28;20043;-69
2024/01/04 09:11:01;;;;;;;0.00;0.00;;;6.10;85.70;;;;;;5062722;28;20048;-69
2024/01/04 09:13:27;;;;;;;0.00;0.00;;;6.00;85.40;;;;;;5066760;28;20444;-68
2024/01/04 09:15:52;;;;;;;0.00;0.00;;;6.10;85.40;;;;;;5054220;28;20067;-68
2024/01/04 09:18:19;;;;;;;0.00;0.00;;;6.10;85.20;;;;;;5067030;28;20062;-68
2024/01/04 09:20:45;;;;;;;0.00;0.00;;;6.00;84.40;;;;;;5068023;28;20499;-68
2024/01/04 09:23:10;;;;;;;0.00;0.00;;;6.00;84.50;;;;;;5068743;28;20051;-68
2024/01/04 09:25:36;;;;;;;0.00;0.00;;;6.00;84.50;;;;;;5050712;28;20045;-68
2024/01/04 09:28:02;;;;;;;0.00;0.00;;;6.00;84.10;;;;;;5068919;28;20052;-69
2024/01/04 09:30:30;;;;;;;0.00;0.00;;;6.00;84.40;;;;;;5068263;28;20133;-69
2024/01/04 09:32:56;;;;;;;0.10;0.10;;;6.00;84.80;;;;;;5067243;28;20044;-69
2024/01/04 09:35:23;;;;;;;0.00;0.00;;;5.90;84.40;;;;;;5059387;28;20049;-69
2024/01/04 09:37:50;;;;;;;0.00;0.00;;;6.00;84.60;;;;;;5055153;28;20080;-69
2024/01/04 09:40:17;;;;;;;0.00;0.00;;;5.90;84.50;;;;;;5057636;28;20061;-68
2024/01/04 09:42:44;;;;;;;0.00;0.00;;;6.00;84.70;;;;;;5062668;28;20040;-69
2024/01/04 09:45:13;;;;;;;0.00;0.00;;;6.00;84.60;;;;;;5066874;28;20059;-69
2024/01/04 09:47:43;;;;;;;0.00;0.00;;;6.00;84.50;;;;;;5066950;28;20532;-69
2024/01/04 09:50:12;;;;;;;0.00;0.00;;;6.10;84.20;;;;;;5067225;28;20068;-69
2024/01/04 09:52:44;;;;;;;0.00;0.00;;;6.10;84.30;;;;;;5066522;28;20040;-69
2024/01/04 09:55:11;;;;;;;0.00;0.00;;;6.10;84.50;;;;;;5067011;28;20860;-69
2024/01/04 09:57:37;;;;;;;0.00;0.00;;;6.10;84.50;;;;;;5067207;28;20045;-69
2024/01/04 10:00:04;;;;;;;0.00;0.00;;;6.10;84.30;;;;;;5067230;28;20114;-69
2024/01/04 10:02:32;;;;;;;0.00;0.00;;;6.10;84.40;;;;;;5067438;28;20059;-69
2024/01/04 10:04:59;;;;;;;0.00;0.00;;;6.10;83.00;;;;;;5067276;28;20044;-69
2024/01/04 10:07:30;;;;;;;0.00;0.00;;;6.10;83.40;;;;;;5066784;28;20045;-69
2024/01/04 10:10:05;;;;;;;0.00;0.00;;;6.10;83.50;;;;;;5067360;28;20506;-68
2024/01/04 10:12:32;;;;;;;0.00;0.00;;;6.10;83.70;;;;;;5066991;28;20097;-69
2024/01/04 10:14:59;;;;;;;0.00;0.00;;;6.20;83.80;;;;;;5067609;28;20090;-68
2024/01/04 10:17:24;;;;;;;0.00;0.00;;;6.20;83.70;;;;;;5066208;28;20579;-68
2024/01/04 10:19:50;;;;;;;0.22;0.22;;;6.30;83.40;;;;;;5048142;28;20044;-69
2024/01/04 10:22:23;;;;;;;0.00;0.00;;;6.30;83.40;;;;;;5066177;28;20064;-68
2024/01/04 10:24:51;;;;;;;0.10;0.10;;;6.30;83.10;;;;;;5065799;28;20240;-69
2024/01/04 10:27:16;;;;;;;0.00;0.00;;;6.30;82.70;;;;;;5065500;28;20053;-69
2024/01/04 10:29:45;;;;;;;0.00;0.00;;;6.40;83.00;;;;;;5063850;28;20044;-68
2024/01/04 10:32:13;;;;;;;0.00;0.00;;;6.30;83.00;;;;;;5061898;28;20059;-69
2024/01/04 10:34:39;;;;;;;0.00;0.00;;;6.30;83.10;;;;;;5065952;28;20818;-69
2024/01/04 10:37:18;;;;;;;0.00;0.00;;;6.30;83.00;;;;;;5066218;28;20055;-68
2024/01/04 10:39:58;;;;;;;0.00;0.00;;;6.30;83.20;;;;;;5060652;28;20052;-68
2024/01/04 10:42:24;;;;;;;0.08;0.08;;;6.30;83.20;;;;;;5065900;28;20047;-69
2024/01/04 10:44:53;;;;;;;0.00;0.00;;;6.30;83.50;;;;;;5066532;28;20055;-69
2024/01/04 10:47:19;;;;;;;0.00;0.00;;;6.40;83.50;;;;;;5066017;28;20412;-68
2024/01/04 10:49:47;;;;;;;0.00;0.00;;;6.40;83.40;;;;;;5065170;28;20036;-68
2024/01/04 10:52:17;;;;;;;0.00;0.00;;;6.40;83.30;;;;;;5060984;28;20037;-70
2024/01/04 10:54:43;;;;;;;0.00;0.00;;;6.40;83.30;;;;;;5064273;28;20503;-69
2024/01/04 10:57:11;;;;;;;0.00;0.00;;;6.30;83.00;;;;;;5066480;28;20047;-69
2024/01/04 10:59:36;;;;;;;0.00;0.00;;;6.30;82.70;;;;;;5066783;28;20384;-69
2024/01/04 11:02:03;;;;;;;0.00;0.00;;;6.30;82.10;;;;;;5063434;28;20070;-69
2024/01/04 11:04:29;;;;;;;0.00;0.00;;;6.20;82.40;;;;;;5065971;28;20087;-69
2024/01/04 11:06:57;;;;;;;0.00;0.00;;;6.20;81.90;;;;;;5063945;28;20099;-69
2024/01/04 11:09:23;;;;;;;0.00;0.00;;;6.20;81.80;;;;;;5060089;28;20048;-69
2024/01/04 11:11:53;;;;;;;0.00;0.00;;;6.20;81.90;;;;;;5027902;28;20063;-69
2024/01/04 11:14:22;;;;;;;0.00;0.00;;;6.20;82.20;;;;;;5052227;28;20045;-69
2024/01/04 11:16:59;;;;;;;0.00;0.00;;;6.30;82.50;;;;;;5066518;28;20059;-69
2024/01/04 11:19:40;;;;;;;0.00;0.00;;;6.40;82.70;;;;;;5066779;28;20040;-69
2024/01/04 11:22:24;;;;;;;0.00;0.00;;;6.40;81.80;;;;;;5066032;28;20094;-69
2024/01/04 11:25:08;;;;;;;0.00;0.00;;;6.40;81.70;;;;;;5066252;28;20045;-69
2024/01/04 11:27:34;;;;;;;0.00;0.00;;;6.40;81.40;;;;;;5066659;28;20052;-69
2024/01/04 11:30:02;;;;;;;0.00;0.00;;;6.40;81.80;;;;;;5066152;28;20044;-69
2024/01/04 11:32:29;;;;;;;0.00;0.00;;;6.40;82.10;;;;;;5046525;28;20045;-69
2024/01/04 11:34:56;;;;;;;0.00;0.00;;;6.40;82.20;;;;;;5046316;28;20157;-69
2024/01/04 11:37:23;;;;;;;0.00;0.00;;;6.40;82.40;;;;;;5049670;28;20053;-70
2024/01/04 11:40:00;;;;;;;0.00;0.00;;;6.50;82.40;;;;;;5069787;28;20095;-69
2024/01/04 11:42:39;;;;;;;0.00;0.00;;;6.50;82.60;;;;;;5070423;28;20051;-69
2024/01/04 11:45:15;;;;;;;0.10;0.10;;;6.50;82.50;;;;;;5069432;28;20037;-69
2024/01/04 11:47:43;;;;;;;0.10;0.10;;;6.60;82.70;;;;;;5066819;28;20032;-69
2024/01/04 11:50:16;;;;;;;0.00;0.00;;;6.60;82.50;;;;;;5061329;28;20049;-69
2024/01/04 11:52:45;;;;;;;0.00;0.00;;;6.60;82.70;;;;;;5065712;28;20495;-69
2024/01/04 11:55:21;;;;;;;0.00;0.00;;;6.70;83.00;;;;;;5067020;28;20040;-69
2024/01/04 11:57:47;;;;;;;0.10;0.10;;;6.70;82.90;;;;;;5064731;28;20049;-69
2024/01/04 12:00:14;;;;;;;0.00;0.00;;;6.80;82.90;;;;;;5066791;28;20060;-69
2024/01/04 12:02:40;;;;;;;0.00;0.00;;;6.90;83.00;;;;;;5062940;28;20040;-69
2024/01/04 12:05:06;;;;;;;0.00;0.00;;;6.90;83.00;;;;;;5050202;28;20483;-69
2024/01/04 12:07:35;;;;;;;0.00;0.00;;;7.00;83.00;;;;;;5067543;28;20550;-69
2024/01/04 12:10:00;;;;;;;0.00;0.00;;;7.10;83.00;;;;;;5049536;28;20052;-69
2024/01/04 12:12:26;;;;;;;0.00;0.00;;;7.20;83.10;;;;;;5050032;28;20037;-69
2024/01/04 12:14:52;;;;;;;0.00;0.00;;;7.20;83.00;;;;;;5051703;28;20047;-69
2024/01/04 12:17:18;;;;;;;0.00;0.00;;;7.30;83.00;;;;;;5069421;28;20097;-69
2024/01/04 12:19:44;;;;;;;0.10;0.10;;;7.20;82.90;;;;;;5067634;28;20044;-69
2024/01/04 12:22:10;;;;;;;0.00;0.00;;;7.30;82.90;;;;;;5060525;28;20047;-69
2024/01/04 12:24:38;;;;;;;0.00;0.00;;;7.30;82.80;;;;;;5069388;28;20272;-69
2024/01/04 12:27:05;;;;;;;0.00;0.00;;;7.30;82.30;;;;;;5069115;28;20037;-69
2024/01/04 12:29:31;;;;;;;0.00;0.00;;;7.30;82.20;;;;;;5069076;28;20076;-69
2024/01/04 12:31:56;;;;;;;0.00;0.00;;;7.30;82.50;;;;;;5069054;28;20133;-69
2024/01/04 12:34:23;;;;;;;0.00;0.00;;;7.40;82.60;;;;;;5068109;28;20048;-69
2024/01/04 12:36:48;;;;;;;0.10;0.10;;;7.40;82.40;;;;;;5068407;28;20036;-69
2024/01/04 12:39:14;;;;;;;0.00;0.00;;;7.40;82.50;;;;;;5068492;28;20037;-68
2024/01/04 12:41:45;;;;;;;0.00;0.00;;;7.40;82.50;;;;;;5068863;28;20048;-69
2024/01/04 12:44:11;;;;;;;0.00;0.00;;;7.50;82.70;;;;;;5067419;28;20457;-69
2024/01/04 12:46:39;;;;;;;0.00;0.00;;;7.50;82.70;;;;;;5067011;28;20045;-69
2024/01/04 12:49:06;;;;;;;0.00;0.00;;;7.60;82.70;;;;;;5067335;28;20044;-69
2024/01/04 12:51:32;;;;;;;0.00;0.00;;;7.60;82.80;;;;;;5068132;28;20063;-69
2024/01/04 12:53:58;;;;;;;0.00;0.00;;;7.60;82.70;;;;;;5063626;28;20098;-69